createdAt,value
2023-01-18T00:02:14.293Z,14.27
2023-01-18T00:04:43.849Z,15.70
2023-01-18T00:07:13.336Z,14.43
2023-01-18T00:09:45.288Z,12.60
2023-01-18T00:12:14.779Z,17.52
2023-01-18T00:14:44.175Z,16.77
2023-01-18T00:17:13.712Z,10.38
2023-01-18T00:19:43.088Z,10.52
2023-01-18T00:22:12.461Z,13.13
2023-01-18T00:24:41.881Z,19.90
2023-01-18T00:27:14.367Z,17.38
2023-01-18T00:29:43.799Z,14.57
2023-01-18T00:32:14.335Z,22.60
2023-01-18T00:34:43.771Z,23.08
2023-01-18T00:37:13.149Z,18.80
2023-01-18T00:39:42.913Z,20.30
2023-01-18T00:42:27.426Z,19.33
2023-01-18T00:44:56.834Z,22.60
2023-01-18T00:47:27.082Z,25.27
2023-01-18T00:49:56.491Z,15.38
2023-01-18T00:52:25.906Z,17.10
2023-01-18T00:54:55.312Z,27.17
2023-01-18T00:57:27.308Z,23.38
2023-01-18T00:59:56.753Z,27.60
2023-01-18T01:02:26.244Z,22.20
2023-01-18T01:05:08.198Z,24.58
2023-01-18T01:07:37.654Z,8.65
2023-01-18T01:10:09.891Z,17.95
2023-01-18T01:12:54.545Z,23.35
2023-01-18T01:15:36.704Z,18.77
2023-01-18T01:18:18.758Z,17.48
2023-01-18T01:21:00.608Z,20.30
2023-01-18T01:23:42.528Z,16.30
2023-01-18T01:26:13.547Z,16.48
2023-01-18T01:28:47.216Z,19.08
2023-01-18T01:31:18.776Z,27.85
2023-01-18T01:33:51.703Z,26.20
2023-01-18T01:36:25.915Z,21.98
2023-01-18T01:38:55.650Z,22.75
2023-01-18T01:41:27.945Z,20.40
2023-01-18T01:44:00.883Z,15.13
2023-01-18T01:46:35.403Z,19.67
2023-01-18T01:49:08.305Z,22.67
2023-01-18T01:51:39.228Z,18.38
2023-01-18T01:54:13.326Z,17.27
2023-01-18T01:56:43.729Z,21.98
2023-01-18T01:59:15.723Z,24.23
2023-01-18T02:01:46.047Z,26.40
2023-01-18T02:04:15.761Z,23.17
2023-01-18T02:06:45.211Z,19.60
2023-01-18T02:09:22.975Z,22.10
2023-01-18T02:11:52.896Z,19.55
2023-01-18T02:14:27.420Z,14.98
2023-01-18T02:17:07.280Z,23.20
2023-01-18T02:19:50.837Z,22.17
2023-01-18T02:22:29.549Z,14.63
2023-01-18T02:25:17.765Z,16.60
2023-01-18T02:27:50.476Z,19.25
2023-01-18T02:30:32.267Z,22.13
2023-01-18T02:33:08.019Z,31.27
2023-01-18T02:35:47.133Z,20.25
2023-01-18T02:38:20.021Z,15.70
2023-01-18T02:41:02.214Z,15.15
2023-01-18T02:43:44.470Z,24.85
2023-01-18T02:46:34.178Z,18.20
2023-01-18T02:49:10.224Z,18.40
2023-01-18T02:51:40.215Z,18.75
2023-01-18T02:54:11.577Z,22.30
2023-01-18T02:56:42.733Z,27.70
2023-01-18T02:59:15.220Z,19.88
2023-01-18T03:01:50.214Z,23.02
2023-01-18T03:04:23.493Z,25.10
2023-01-18T03:06:57.497Z,25.33
2023-01-18T03:09:27.480Z,22.58
2023-01-18T03:12:01.029Z,24.02
2023-01-18T03:14:39.821Z,31.02
2023-01-18T03:17:14.933Z,27.90
2023-01-18T03:20:00.882Z,26.50
2023-01-18T03:22:59.660Z,24.63
2023-01-18T03:25:31.900Z,27.05
2023-01-18T03:28:18.315Z,28.90
2023-01-18T03:31:00.846Z,25.42
2023-01-18T03:33:49.059Z,29.88
2023-01-18T03:36:21.397Z,28.40
2023-01-18T03:38:55.428Z,25.02
2023-01-18T03:41:27.941Z,26.23
2023-01-18T03:43:59.556Z,24.77
2023-01-18T03:46:29.963Z,24.52
2023-01-18T03:49:02.496Z,24.80
2023-01-18T03:51:47.281Z,27.83
2023-01-18T03:54:20.782Z,33.97
2023-01-18T03:56:54.525Z,29.58
2023-01-18T03:59:23.929Z,28.75
2023-01-18T04:01:53.346Z,28.20
2023-01-18T04:04:25.412Z,29.33
2023-01-18T04:06:54.849Z,32.53
2023-01-18T04:09:24.506Z,26.80
2023-01-18T04:11:54.043Z,33.80
2023-01-18T04:14:23.447Z,25.38
2023-01-18T04:16:52.923Z,25.35
2023-01-18T04:19:24.949Z,24.42
2023-01-18T04:21:54.332Z,26.85
2023-01-18T04:24:23.711Z,25.92
2023-01-18T04:26:53.119Z,28.20
2023-01-18T04:29:22.556Z,28.67
2023-01-18T04:31:51.997Z,28.98
2023-01-18T04:34:22.255Z,26.30
2023-01-18T04:36:54.599Z,25.38
2023-01-18T04:39:24.054Z,24.55
2023-01-18T04:41:53.980Z,26.70
2023-01-18T04:44:24.178Z,30.10
2023-01-18T04:46:54.138Z,22.65
2023-01-18T04:49:24.200Z,27.65
2023-01-18T04:51:56.235Z,23.42
2023-01-18T04:54:25.729Z,26.95
2023-01-18T04:56:55.141Z,23.75
2023-01-18T04:59:24.551Z,23.48
2023-01-18T05:01:54.213Z,29.65
2023-01-18T05:04:23.683Z,30.75
2023-01-18T05:06:56.424Z,31.25
2023-01-18T05:09:25.839Z,33.97
2023-01-18T05:11:55.419Z,27.80
2023-01-18T05:14:24.904Z,35.88
2023-01-18T05:16:54.317Z,31.05
2023-01-18T05:19:23.829Z,28.85
2023-01-18T05:21:55.807Z,35.55
2023-01-18T05:24:26.699Z,27.92
2023-01-18T05:26:57.095Z,32.70
2023-01-18T05:29:26.572Z,33.15
2023-01-18T05:31:56.051Z,37.70
2023-01-18T05:34:25.554Z,28.02
2023-01-18T05:36:57.692Z,25.65
2023-01-18T05:39:27.116Z,28.25
2023-01-18T05:41:58.723Z,27.52
2023-01-18T05:44:29.426Z,28.52
2023-01-18T05:46:58.849Z,30.77
2023-01-18T05:49:28.277Z,28.35
2023-01-18T05:52:00.303Z,28.08
2023-01-18T05:54:29.774Z,32.00
2023-01-18T05:56:59.185Z,29.08
2023-01-18T05:59:28.638Z,27.42
2023-01-18T06:01:58.032Z,34.25
2023-01-18T06:04:27.651Z,29.92
2023-01-18T06:06:57.156Z,30.67
2023-01-18T06:09:30.133Z,28.48
2023-01-18T06:11:59.615Z,34.20
2023-01-18T06:14:29.036Z,35.60
2023-01-18T06:16:58.465Z,31.85
2023-01-18T06:19:27.854Z,43.40
2023-01-18T06:21:57.254Z,34.08
2023-01-18T06:24:29.230Z,35.40
2023-01-18T06:26:59.286Z,33.05
2023-01-18T06:29:28.772Z,34.53
2023-01-18T06:31:58.572Z,30.52
2023-01-18T06:34:30.276Z,37.80
2023-01-18T06:36:59.838Z,30.27
2023-01-18T06:39:31.877Z,32.78
2023-01-18T06:42:01.308Z,30.95
2023-01-18T06:44:30.712Z,36.67
2023-01-18T06:47:00.143Z,26.17
2023-01-18T06:49:30.151Z,36.58
2023-01-18T06:51:59.529Z,30.85
2023-01-18T06:54:31.525Z,27.42
2023-01-18T06:57:01.206Z,29.17
2023-01-18T06:59:30.732Z,29.65
2023-01-18T07:02:00.386Z,30.23
2023-01-18T07:04:35.397Z,27.88
2023-01-18T07:07:05.092Z,31.60
2023-01-18T07:09:37.243Z,36.78
2023-01-18T07:12:07.522Z,33.53
2023-01-18T07:14:36.955Z,25.98
2023-01-18T07:17:06.506Z,32.15
2023-01-18T07:19:35.886Z,31.67
2023-01-18T07:22:05.350Z,34.17
2023-01-18T07:24:37.377Z,33.38
2023-01-18T07:27:06.801Z,32.83
2023-01-18T07:29:36.522Z,29.23
2023-01-18T07:32:06.539Z,29.20
2023-01-18T07:34:35.969Z,29.80
2023-01-18T07:37:05.350Z,35.08
2023-01-18T07:39:37.376Z,35.50
2023-01-18T07:42:07.175Z,34.10
2023-01-18T07:44:37.672Z,36.28
2023-01-18T07:47:07.906Z,37.15
2023-01-18T07:49:37.337Z,39.17
2023-01-18T07:52:07.183Z,31.23
2023-01-18T07:54:39.158Z,31.27
2023-01-18T07:57:08.696Z,29.15
2023-01-18T07:59:39.977Z,29.95
2023-01-18T08:02:12.765Z,29.65
2023-01-18T08:04:43.269Z,33.30
2023-01-18T08:07:12.647Z,28.77
2023-01-18T08:09:44.730Z,33.03
2023-01-18T08:12:18.135Z,31.67
2023-01-18T08:14:48.124Z,35.45
2023-01-18T08:17:17.538Z,29.45
2023-01-18T08:19:46.946Z,35.42
2023-01-18T08:22:16.342Z,30.95
2023-01-18T08:24:48.330Z,28.38
2023-01-18T08:27:17.719Z,33.30
2023-01-18T08:29:48.220Z,31.52
2023-01-18T08:32:20.523Z,32.72
2023-01-18T08:34:49.899Z,37.65
2023-01-18T08:37:19.464Z,36.80
2023-01-18T08:39:51.426Z,34.88
2023-01-18T08:42:20.835Z,32.10
2023-01-18T08:44:50.845Z,28.70
2023-01-18T08:47:20.238Z,35.25
2023-01-18T08:49:49.675Z,32.20
2023-01-18T08:52:19.105Z,34.60
2023-01-18T08:54:51.139Z,32.67
2023-01-18T08:57:23.203Z,37.15
2023-01-18T08:59:52.630Z,33.80
2023-01-18T09:02:22.094Z,33.28
2023-01-18T09:04:51.580Z,27.25
2023-01-18T09:07:20.993Z,31.13
2023-01-18T09:09:55.629Z,33.17
2023-01-18T09:12:25.469Z,31.15
2023-01-18T09:14:54.923Z,39.15
2023-01-18T09:17:24.336Z,33.85
2023-01-18T09:19:54.502Z,36.53
2023-01-18T09:22:24.229Z,34.92
2023-01-18T09:24:57.916Z,39.47
2023-01-18T09:27:27.466Z,28.98
2023-01-18T09:29:56.838Z,33.00
2023-01-18T09:32:27.538Z,35.15
2023-01-18T09:34:57.059Z,31.48
2023-01-18T09:37:26.570Z,36.78
2023-01-18T09:40:00.395Z,42.45
2023-01-18T09:42:39.069Z,38.88
2023-01-18T09:45:09.847Z,40.75
2023-01-18T09:47:46.539Z,37.03
2023-01-18T09:50:18.225Z,45.47
2023-01-18T09:52:54.570Z,54.80
2023-01-18T09:55:33.246Z,33.22
2023-01-18T09:58:23.010Z,39.40
2023-01-18T10:00:52.541Z,35.45
2023-01-18T10:03:24.623Z,37.42
2023-01-18T10:06:08.436Z,33.67
2023-01-18T10:08:40.064Z,38.40
2023-01-18T10:11:17.349Z,32.03
2023-01-18T10:13:54.559Z,33.92
2023-01-18T10:16:25.310Z,33.47
2023-01-18T10:18:55.775Z,32.13
2023-01-18T10:21:35.601Z,30.80
2023-01-18T10:24:24.442Z,32.53
2023-01-18T10:27:03.518Z,37.58
2023-01-18T10:29:44.372Z,33.55
2023-01-18T10:32:17.677Z,33.80
2023-01-18T10:34:50.448Z,31.10
2023-01-18T10:37:26.838Z,25.52
2023-01-18T10:39:58.909Z,29.52
2023-01-18T10:42:34.188Z,33.25
2023-01-18T10:45:03.637Z,33.50
2023-01-18T10:47:34.044Z,26.15
2023-01-18T10:50:03.563Z,35.67
2023-01-18T10:52:34.271Z,24.38
2023-01-18T10:55:07.436Z,45.35
2023-01-18T10:57:44.330Z,34.05
2023-01-18T11:00:26.536Z,24.67
2023-01-18T11:02:58.094Z,13.55
2023-01-18T11:05:32.180Z,16.92
2023-01-18T11:08:16.050Z,20.55
2023-01-18T11:10:45.672Z,25.13
2023-01-18T11:13:34.107Z,23.10
2023-01-18T11:16:12.660Z,33.08
2023-01-18T11:18:58.229Z,20.60
2023-01-18T11:21:32.851Z,21.25
2023-01-18T11:24:09.003Z,23.48
2023-01-18T11:26:38.675Z,22.95
2023-01-18T11:29:15.548Z,26.85
2023-01-18T11:31:49.128Z,23.70
2023-01-18T11:34:30.859Z,25.95
2023-01-18T11:37:01.145Z,22.05
2023-01-18T11:39:33.513Z,22.63
2023-01-18T11:42:22.773Z,17.90
2023-01-18T11:45:02.466Z,25.10
2023-01-18T11:47:36.946Z,24.40
2023-01-18T11:50:22.190Z,19.83
2023-01-18T11:52:55.002Z,21.70
2023-01-18T11:55:31.436Z,19.73
2023-01-18T11:58:02.123Z,20.30
2023-01-18T12:00:40.509Z,22.35
2023-01-18T12:03:42.811Z,23.20
2023-01-18T12:06:20.990Z,22.80
2023-01-18T12:09:04.543Z,20.13
2023-01-18T12:11:45.896Z,20.23
2023-01-18T12:14:26.327Z,23.20
2023-01-18T12:17:13.915Z,18.25
2023-01-18T12:20:06.718Z,22.20
2023-01-18T12:23:09.301Z,22.70
2023-01-18T12:26:11.005Z,21.73
2023-01-18T12:28:50.525Z,22.27
2023-01-18T12:31:24.394Z,23.20
2023-01-18T12:34:05.894Z,20.00
2023-01-18T12:36:52.341Z,18.10
2023-01-18T12:39:33.504Z,18.53
2023-01-18T12:42:07.396Z,23.00
2023-01-18T12:44:48.165Z,22.05
2023-01-18T12:47:27.414Z,33.92
2023-01-18T12:50:01.431Z,20.80
2023-01-18T12:52:32.632Z,24.50
2023-01-18T12:55:04.059Z,20.80
2023-01-18T12:57:33.614Z,21.60
2023-01-18T13:00:09.226Z,25.73
2023-01-18T13:02:44.457Z,22.53
2023-01-18T13:05:20.289Z,21.10
2023-01-18T13:07:52.791Z,24.47
2023-01-18T13:10:24.757Z,22.70
2023-01-18T13:12:55.072Z,21.27
2023-01-18T13:15:31.526Z,17.40
2023-01-18T13:18:08.116Z,23.33
2023-01-18T13:20:47.527Z,18.30
2023-01-18T13:23:28.746Z,16.27
2023-01-18T13:26:04.648Z,17.03
2023-01-18T13:28:34.168Z,17.03
2023-01-18T13:31:06.258Z,30.87
2023-01-18T13:33:37.801Z,14.97
2023-01-18T13:36:11.756Z,21.70
2023-01-18T13:38:43.001Z,34.17
2023-01-18T13:41:14.827Z,16.90
2023-01-18T13:44:04.111Z,17.00
2023-01-18T13:46:36.921Z,16.80
2023-01-18T13:49:37.357Z,23.33
2023-01-18T13:52:31.763Z,14.83
2023-01-18T13:55:08.299Z,18.93
2023-01-18T13:57:38.044Z,21.30
2023-01-18T14:00:09.165Z,14.20
2023-01-18T14:02:42.503Z,22.53
2023-01-18T14:05:25.150Z,15.97
2023-01-18T14:07:59.392Z,15.67
2023-01-18T14:10:33.268Z,18.13
2023-01-18T14:13:06.658Z,16.03
2023-01-18T14:15:53.141Z,16.70
2023-01-18T14:18:27.870Z,12.90
2023-01-18T14:21:06.799Z,15.00
2023-01-18T14:23:50.085Z,15.13
2023-01-18T14:26:22.383Z,15.97
2023-01-18T14:28:55.347Z,16.40
2023-01-18T14:31:29.209Z,16.27
2023-01-18T14:33:58.678Z,13.60
2023-01-18T14:36:29.896Z,14.47
2023-01-18T14:39:17.763Z,20.93
2023-01-18T14:41:49.207Z,20.50
2023-01-18T14:44:21.003Z,16.37
2023-01-18T14:46:52.260Z,20.10
2023-01-18T14:49:26.457Z,16.70
2023-01-18T14:51:56.598Z,22.43
2023-01-18T14:54:28.638Z,19.07
2023-01-18T14:57:04.169Z,17.27
2023-01-18T14:59:34.228Z,16.83
2023-01-18T15:02:04.812Z,15.67
2023-01-18T15:04:38.922Z,18.47
2023-01-18T15:07:11.054Z,23.20
2023-01-18T15:09:44.410Z,15.37
2023-01-18T15:12:16.670Z,14.77
2023-01-18T15:14:47.571Z,16.70
2023-01-18T15:17:21.914Z,16.80
2023-01-18T15:19:53.301Z,19.90
2023-01-18T15:22:24.370Z,22.77
2023-01-18T15:24:59.142Z,21.80
2023-01-18T15:27:31.707Z,15.87
2023-01-18T15:30:02.683Z,18.42
2023-01-18T15:32:33.857Z,16.87
2023-01-18T15:35:04.390Z,17.77
2023-01-18T15:37:36.821Z,18.83
2023-01-18T15:40:26.766Z,22.05
2023-01-18T15:43:04.188Z,21.48
2023-01-18T15:45:35.215Z,18.40
2023-01-18T15:48:10.495Z,17.98
2023-01-18T15:50:41.588Z,20.42
2023-01-18T15:53:17.335Z,17.95
2023-01-18T15:55:53.414Z,17.13
2023-01-18T15:58:28.183Z,22.38
2023-01-18T16:00:58.902Z,18.02
2023-01-18T16:03:30.408Z,25.23
2023-01-18T16:06:12.671Z,18.92
2023-01-18T16:09:00.895Z,18.85
2023-01-18T16:11:36.770Z,18.58
2023-01-18T16:14:13.044Z,21.48
2023-01-18T16:16:44.218Z,25.05
2023-01-18T16:19:21.267Z,18.15
2023-01-18T16:21:52.722Z,19.58
2023-01-18T16:24:29.391Z,19.25
2023-01-18T16:27:04.186Z,23.02
2023-01-18T16:29:43.966Z,22.10
2023-01-18T16:32:33.228Z,20.17
2023-01-18T16:35:05.175Z,21.70
2023-01-18T16:37:34.715Z,23.05
2023-01-18T16:40:04.427Z,24.58
2023-01-18T16:42:38.426Z,23.35
2023-01-18T16:45:11.609Z,22.27
2023-01-18T16:47:41.048Z,19.02
2023-01-18T16:50:16.227Z,21.48
2023-01-18T16:52:45.980Z,22.92
2023-01-18T16:55:16.263Z,19.88
2023-01-18T16:57:50.415Z,24.48
2023-01-18T17:00:23.124Z,24.20
2023-01-18T17:02:53.677Z,23.60
2023-01-18T17:05:23.434Z,28.38
2023-01-18T17:07:53.432Z,23.80
2023-01-18T17:10:36.991Z,23.38
2023-01-18T17:13:09.759Z,25.73
2023-01-18T17:15:41.690Z,36.72
2023-01-18T17:18:14.771Z,32.28
2023-01-18T17:20:44.604Z,27.75
2023-01-18T17:23:14.278Z,28.27
2023-01-18T17:25:43.833Z,26.77
2023-01-18T17:28:17.753Z,23.45
2023-01-18T17:30:49.036Z,26.17
2023-01-18T17:33:20.353Z,27.08
2023-01-18T17:35:50.541Z,25.13
2023-01-18T17:38:25.710Z,32.08
2023-01-18T17:40:56.728Z,23.55
2023-01-18T17:43:33.751Z,30.33
2023-01-18T17:46:05.606Z,22.38
2023-01-18T17:48:35.276Z,23.40
2023-01-18T17:51:07.759Z,22.73
2023-01-18T17:53:37.483Z,31.13
2023-01-18T17:56:11.445Z,27.50
2023-01-18T17:58:43.803Z,24.98
2023-01-18T18:01:15.015Z,38.70
2023-01-18T18:03:45.831Z,27.45
2023-01-18T18:06:26.049Z,25.83
2023-01-18T18:08:59.504Z,28.65
2023-01-18T18:11:28.927Z,24.25
2023-01-18T18:14:02.410Z,23.38
2023-01-18T18:16:34.407Z,29.55
2023-01-18T18:19:07.827Z,32.03
2023-01-18T18:21:37.235Z,29.85
2023-01-18T18:24:06.719Z,26.92
2023-01-18T18:26:36.126Z,26.60
2023-01-18T18:29:08.120Z,30.25
2023-01-18T18:31:38.943Z,26.77
2023-01-18T18:34:08.709Z,28.25
2023-01-18T18:36:38.229Z,26.35
2023-01-18T18:39:08.706Z,22.67
2023-01-18T18:41:38.405Z,24.85
2023-01-18T18:44:10.357Z,24.88
2023-01-18T18:46:43.231Z,24.20
2023-01-18T18:49:12.705Z,22.98
2023-01-18T18:51:42.113Z,30.48
2023-01-18T18:54:13.204Z,26.85
2023-01-18T18:56:42.805Z,31.42
2023-01-18T18:59:14.939Z,21.52
2023-01-18T19:01:44.414Z,24.30
2023-01-18T19:04:14.028Z,26.67
2023-01-18T19:06:43.465Z,26.80
2023-01-18T19:09:12.875Z,23.95
2023-01-18T19:11:50.621Z,26.65
2023-01-18T19:14:27.055Z,28.48
2023-01-18T19:16:56.926Z,31.25
2023-01-18T19:19:26.892Z,28.65
2023-01-18T19:21:56.337Z,46.10
2023-01-18T19:24:26.559Z,25.55
2023-01-18T19:26:56.018Z,25.23
2023-01-18T19:29:28.004Z,54.70
2023-01-18T19:31:57.414Z,30.85
2023-01-18T19:34:26.960Z,24.35
2023-01-18T19:36:56.401Z,29.50
2023-01-18T19:39:26.554Z,26.40
2023-01-18T19:41:56.098Z,31.88
2023-01-18T19:44:28.090Z,25.33
2023-01-18T19:46:57.671Z,26.23
2023-01-18T19:49:27.696Z,25.73
2023-01-18T19:51:57.312Z,28.58
2023-01-18T19:54:26.692Z,29.35
2023-01-18T19:56:56.071Z,30.23
2023-01-18T19:59:28.592Z,29.77
2023-01-18T20:01:58.095Z,29.95
2023-01-18T20:04:27.559Z,26.60
2023-01-18T20:06:57.061Z,26.58
2023-01-18T20:09:35.050Z,24.42
2023-01-18T20:12:12.510Z,28.15
2023-01-18T20:14:45.201Z,24.25
2023-01-18T20:17:15.990Z,27.98
2023-01-18T20:19:45.700Z,23.88
2023-01-18T20:22:15.150Z,26.60
2023-01-18T20:24:44.544Z,23.95
2023-01-18T20:27:16.158Z,26.75
2023-01-18T20:29:49.478Z,22.70
2023-01-18T20:32:18.984Z,28.05
2023-01-18T20:34:48.675Z,25.08
2023-01-18T20:37:18.611Z,26.35
2023-01-18T20:39:50.194Z,31.55
2023-01-18T20:42:19.677Z,24.02
2023-01-18T20:44:53.762Z,26.23
2023-01-18T20:47:23.183Z,25.48
2023-01-18T20:49:52.652Z,23.75
2023-01-18T20:52:22.065Z,21.73
2023-01-18T20:54:51.553Z,26.73
2023-01-18T20:57:23.515Z,23.67
2023-01-18T20:59:55.492Z,27.95
2023-01-18T21:02:24.916Z,28.85
2023-01-18T21:04:56.624Z,26.40
2023-01-18T21:07:25.996Z,26.67
2023-01-18T21:09:55.404Z,28.13
2023-01-18T21:12:24.920Z,27.70
2023-01-18T21:14:56.923Z,33.42
2023-01-18T21:17:26.422Z,23.77
2023-01-18T21:19:55.921Z,23.85
2023-01-18T21:22:25.326Z,24.42
2023-01-18T21:24:56.211Z,30.27
2023-01-18T21:27:27.611Z,32.30
2023-01-18T21:29:59.589Z,23.88
2023-01-18T21:32:28.996Z,27.15
2023-01-18T21:34:58.385Z,24.70
2023-01-18T21:37:27.821Z,26.35
2023-01-18T21:39:58.324Z,27.88
2023-01-18T21:42:40.305Z,22.95
2023-01-18T21:45:26.007Z,26.00
2023-01-18T21:47:55.483Z,24.88
2023-01-18T21:50:37.515Z,23.10
2023-01-18T21:53:24.963Z,23.30
2023-01-18T21:55:54.834Z,19.77
2023-01-18T21:58:36.699Z,22.75
2023-01-18T22:01:15.395Z,22.00
2023-01-18T22:03:57.102Z,25.33
2023-01-18T22:06:26.532Z,16.35
2023-01-18T22:08:55.903Z,18.23
2023-01-18T22:11:25.541Z,20.55
2023-01-18T22:13:54.952Z,19.17
2023-01-18T22:16:30.535Z,21.13
2023-01-18T22:19:00.372Z,17.80
2023-01-18T22:21:32.473Z,24.67
2023-01-18T22:24:02.254Z,16.25
2023-01-18T22:26:34.788Z,14.93
2023-01-18T22:29:05.587Z,19.63
2023-01-18T22:31:37.907Z,19.50
2023-01-18T22:34:08.284Z,16.65
2023-01-18T22:36:37.727Z,17.75
2023-01-18T22:39:07.253Z,20.90
2023-01-18T22:41:36.795Z,24.70
2023-01-18T22:44:06.210Z,13.68
2023-01-18T22:46:38.217Z,19.55
2023-01-18T22:49:07.632Z,21.05
2023-01-18T22:51:37.167Z,22.40
2023-01-18T22:54:06.659Z,17.98
2023-01-18T22:56:36.511Z,23.60
2023-01-18T22:59:05.946Z,20.30
2023-01-18T23:01:37.965Z,15.40
2023-01-18T23:04:07.490Z,12.15
2023-01-18T23:06:45.586Z,17.08
2023-01-18T23:09:15.597Z,25.73
2023-01-18T23:11:45.219Z,31.77
2023-01-18T23:14:27.228Z,26.83
2023-01-18T23:17:11.701Z,24.33
2023-01-18T23:19:41.224Z,28.95
2023-01-18T23:22:11.271Z,25.90
2023-01-18T23:24:41.387Z,19.65
2023-01-18T23:27:12.485Z,29.63
2023-01-18T23:29:42.631Z,21.80
2023-01-18T23:32:14.687Z,18.83
2023-01-18T23:34:47.846Z,28.80
2023-01-18T23:37:17.238Z,23.45
2023-01-18T23:39:59.136Z,31.88
2023-01-18T23:42:41.047Z,30.13
2023-01-18T23:45:23.653Z,33.35
2023-01-18T23:48:08.116Z,29.27
2023-01-18T23:50:50.034Z,25.23
2023-01-18T23:53:31.981Z,26.23
2023-01-18T23:56:01.726Z,33.50
2023-01-18T23:58:31.102Z,31.42
